sensor_id;sensor_type;location;lat;lon;timestamp;pressure;altitude;pressure_sealevel;temperature;humidity
3122;BME280;1571;52.524;14.104;2023-02-10T00:01:42;102619.59;;;-0.66;77.58
3122;BME280;1571;52.524;14.104;2023-02-10T00:04:11;102620.59;;;-0.56;77.38
3122;BME280;1571;52.524;14.104;2023-02-10T00:06:40;102623.16;;;-0.59;76.81
3122;BME280;1571;52.524;14.104;2023-02-10T00:09:10;102624.22;;;-0.45;77.15
3122;BME280;1571;52.524;14.104;2023-02-10T00:11:39;102622.13;;;-0.71;77.07
3122;BME280;1571;52.524;14.104;2023-02-10T00:14:29;102625.72;;;-0.64;77.10
3122;BME280;1571;52.524;14.104;2023-02-10T00:16:58;102627.25;;;-0.77;77.53
3122;BME280;1571;52.524;14.104;2023-02-10T00:19:28;102642.97;;;-0.72;77.30
3122;BME280;1571;52.524;14.104;2023-02-10T00:21:57;102640.31;;;-0.75;77.29
3122;BME280;1571;52.524;14.104;2023-02-10T00:24:26;102634.28;;;-0.74;77.36
3122;BME280;1571;52.524;14.104;2023-02-10T00:26:55;102638.41;;;-0.87;77.40
3122;BME280;1571;52.524;14.104;2023-02-10T00:29:23;102636.72;;;-0.85;77.46
3122;BME280;1571;52.524;14.104;2023-02-10T00:31:52;102635.81;;;-0.87;77.57
3122;BME280;1571;52.524;14.104;2023-02-10T00:34:20;102635.69;;;-0.95;77.55
3122;BME280;1571;52.524;14.104;2023-02-10T00:36:49;102636.66;;;-0.88;77.93
3122;BME280;1571;52.524;14.104;2023-02-10T00:39:18;102641.88;;;-0.88;77.88
3122;BME280;1571;52.524;14.104;2023-02-10T00:41:46;102637.69;;;-0.77;77.88
3122;BME280;1571;52.524;14.104;2023-02-10T00:44:14;102635.97;;;-0.76;78.03
3122;BME280;1571;52.524;14.104;2023-02-10T00:46:42;102642.97;;;-0.72;77.98
3122;BME280;1571;52.524;14.104;2023-02-10T00:49:12;102633.66;;;-0.55;78.00
3122;BME280;1571;52.524;14.104;2023-02-10T00:51:40;102643.94;;;-0.66;77.88
3122;BME280;1571;52.524;14.104;2023-02-10T00:54:10;102644.91;;;-0.59;77.63
3122;BME280;1571;52.524;14.104;2023-02-10T00:56:39;102646.84;;;-0.47;77.84
3122;BME280;1571;52.524;14.104;2023-02-10T00:59:08;102635.41;;;-0.55;77.94
3122;BME280;1571;52.524;14.104;2023-02-10T01:01:36;102640.63;;;-0.55;77.66
3122;BME280;1571;52.524;14.104;2023-02-10T01:04:05;102638.53;;;-0.81;77.83
3122;BME280;1571;52.524;14.104;2023-02-10T01:06:35;102640.16;;;-0.88;78.01
3122;BME280;1571;52.524;14.104;2023-02-10T01:09:03;102650.78;;;-0.74;78.24
3122;BME280;1571;52.524;14.104;2023-02-10T01:11:32;102649.81;;;-0.79;78.27
3122;BME280;1571;52.524;14.104;2023-02-10T01:14:00;102645.38;;;-0.86;78.62
3122;BME280;1571;52.524;14.104;2023-02-10T01:16:28;102641.66;;;-1.03;78.92
3122;BME280;1571;52.524;14.104;2023-02-10T01:18:58;102653.03;;;-0.98;78.94
3122;BME280;1571;52.524;14.104;2023-02-10T01:21:26;102651.47;;;-0.87;79.21
3122;BME280;1571;52.524;14.104;2023-02-10T01:23:56;102647.31;;;-0.74;79.11
3122;BME280;1571;52.524;14.104;2023-02-10T01:26:25;102655.94;;;-0.77;79.12
3122;BME280;1571;52.524;14.104;2023-02-10T01:28:53;102657.03;;;-0.61;79.21
3122;BME280;1571;52.524;14.104;2023-02-10T01:31:21;102657.97;;;-0.57;79.28
3122;BME280;1571;52.524;14.104;2023-02-10T01:33:51;102657.25;;;-0.49;79.15
3122;BME280;1571;52.524;14.104;2023-02-10T01:36:21;102662.34;;;-0.58;79.20
3122;BME280;1571;52.524;14.104;2023-02-10T01:38:50;102665.09;;;-0.47;79.20
3122;BME280;1571;52.524;14.104;2023-02-10T01:41:22;102660.63;;;-0.56;79.54
3122;BME280;1571;52.524;14.104;2023-02-10T01:43:58;102656.25;;;-0.58;80.11
3122;BME280;1571;52.524;14.104;2023-02-10T01:46:27;102657.34;;;-0.43;80.09
3122;BME280;1571;52.524;14.104;2023-02-10T01:48:59;102655.50;;;-0.48;80.53
3122;BME280;1571;52.524;14.104;2023-02-10T01:51:33;102652.72;;;-0.60;80.67
3122;BME280;1571;52.524;14.104;2023-02-10T01:54:05;102647.38;;;-0.70;81.31
3122;BME280;1571;52.524;14.104;2023-02-10T01:56:37;102644.94;;;-0.57;81.49
3122;BME280;1571;52.524;14.104;2023-02-10T01:59:06;102647.63;;;-0.51;82.07
3122;BME280;1571;52.524;14.104;2023-02-10T02:01:34;102654.66;;;-0.46;82.05
3122;BME280;1571;52.524;14.104;2023-02-10T02:04:03;102651.16;;;-0.48;82.25
3122;BME280;1571;52.524;14.104;2023-02-10T02:06:33;102651.09;;;-0.52;82.54
3122;BME280;1571;52.524;14.104;2023-02-10T02:09:01;102659.00;;;-0.46;82.78
3122;BME280;1571;52.524;14.104;2023-02-10T02:11:35;102656.28;;;-0.55;82.91
3122;BME280;1571;52.524;14.104;2023-02-10T02:14:23;102668.63;;;-0.42;83.14
3122;BME280;1571;52.524;14.104;2023-02-10T02:17:02;102668.41;;;-0.57;83.68
3122;BME280;1571;52.524;14.104;2023-02-10T02:20:05;102670.31;;;-0.47;84.11
3122;BME280;1571;52.524;14.104;2023-02-10T02:23:08;102674.66;;;-0.46;84.03
3122;BME280;1571;52.524;14.104;2023-02-10T02:25:52;102663.53;;;-0.33;84.09
3122;BME280;1571;52.524;14.104;2023-02-10T02:28:27;102661.84;;;-0.31;84.01
3122;BME280;1571;52.524;14.104;2023-02-10T02:31:32;102661.53;;;-0.52;83.88
3122;BME280;1571;52.524;14.104;2023-02-10T02:34:08;102665.75;;;-0.62;84.50
3122;BME280;1571;52.524;14.104;2023-02-10T02:36:44;102656.19;;;-0.61;84.21
3122;BME280;1571;52.524;14.104;2023-02-10T02:39:15;102669.66;;;-0.90;84.62
3122;BME280;1571;52.524;14.104;2023-02-10T02:41:44;102662.59;;;-0.97;85.04
3122;BME280;1571;52.524;14.104;2023-02-10T02:44:12;102666.09;;;-0.95;85.26
3122;BME280;1571;52.524;14.104;2023-02-10T02:46:50;102664.34;;;-0.96;85.42
3122;BME280;1571;52.524;14.104;2023-02-10T02:49:29;102667.94;;;-0.88;85.24
3122;BME280;1571;52.524;14.104;2023-02-10T02:52:05;102662.72;;;-0.88;85.23
3122;BME280;1571;52.524;14.104;2023-02-10T02:54:42;102674.38;;;-1.21;85.32
3122;BME280;1571;52.524;14.104;2023-02-10T02:57:18;102667.69;;;-1.05;85.72
3122;BME280;1571;52.524;14.104;2023-02-10T02:59:50;102669.44;;;-1.06;86.08
3122;BME280;1571;52.524;14.104;2023-02-10T03:02:21;102673.66;;;-1.12;86.12
3122;BME280;1571;52.524;14.104;2023-02-10T03:04:50;102677.06;;;-1.16;86.45
3122;BME280;1571;52.524;14.104;2023-02-10T03:07:18;102682.94;;;-1.28;86.65
3122;BME280;1571;52.524;14.104;2023-02-10T03:09:46;102675.19;;;-1.23;86.90
3122;BME280;1571;52.524;14.104;2023-02-10T03:12:15;102663.94;;;-1.21;86.81
3122;BME280;1571;52.524;14.104;2023-02-10T03:14:43;102676.13;;;-1.20;86.79
3122;BME280;1571;52.524;14.104;2023-02-10T03:17:11;102677.72;;;-1.28;86.71
3122;BME280;1571;52.524;14.104;2023-02-10T03:19:41;102679.47;;;-1.27;86.83
3122;BME280;1571;52.524;14.104;2023-02-10T03:22:09;102685.63;;;-1.23;87.08
3122;BME280;1571;52.524;14.104;2023-02-10T03:24:37;102687.34;;;-1.24;86.98
3122;BME280;1571;52.524;14.104;2023-02-10T03:27:06;102679.31;;;-1.36;87.23
3122;BME280;1571;52.524;14.104;2023-02-10T03:29:34;102687.09;;;-1.38;87.14
3122;BME280;1571;52.524;14.104;2023-02-10T03:32:02;102677.31;;;-1.50;87.26
3122;BME280;1571;52.524;14.104;2023-02-10T03:34:32;102675.28;;;-1.66;87.31
3122;BME280;1571;52.524;14.104;2023-02-10T03:37:01;102677.13;;;-1.60;87.61
3122;BME280;1571;52.524;14.104;2023-02-10T03:39:29;102691.03;;;-1.60;88.11
3122;BME280;1571;52.524;14.104;2023-02-10T03:41:58;102683.41;;;-1.49;87.88
3122;BME280;1571;52.524;14.104;2023-02-10T03:44:26;102685.94;;;-1.54;88.13
3122;BME280;1571;52.524;14.104;2023-02-10T03:46:54;102696.38;;;-1.52;88.26
3122;BME280;1571;52.524;14.104;2023-02-10T03:49:22;102688.63;;;-1.49;88.41
3122;BME280;1571;52.524;14.104;2023-02-10T03:51:51;102687.78;;;-1.47;88.78
3122;BME280;1571;52.524;14.104;2023-02-10T03:54:20;102684.06;;;-1.61;88.56
3122;BME280;1571;52.524;14.104;2023-02-10T03:56:48;102700.25;;;-1.76;88.78
3122;BME280;1571;52.524;14.104;2023-02-10T03:59:16;102694.97;;;-1.80;88.72
3122;BME280;1571;52.524;14.104;2023-02-10T04:01:44;102695.81;;;-1.81;88.82
3122;BME280;1571;52.524;14.104;2023-02-10T04:04:14;102694.97;;;-1.80;88.88
3122;BME280;1571;52.524;14.104;2023-02-10T04:06:42;102689.56;;;-1.91;89.17
3122;BME280;1571;52.524;14.104;2023-02-10T04:09:10;102676.56;;;-1.90;89.56
3122;BME280;1571;52.524;14.104;2023-02-10T04:11:40;102682.84;;;-1.80;89.86
3122;BME280;1571;52.524;14.104;2023-02-10T04:14:08;102692.94;;;-1.95;89.40
3122;BME280;1571;52.524;14.104;2023-02-10T04:16:36;102676.31;;;-2.02;90.09
3122;BME280;1571;52.524;14.104;2023-02-10T04:19:06;102679.94;;;-1.94;91.06
3122;BME280;1571;52.524;14.104;2023-02-10T04:21:34;102673.53;;;-1.67;91.30
3122;BME280;1571;52.524;14.104;2023-02-10T04:24:02;102667.31;;;-1.75;91.82
3122;BME280;1571;52.524;14.104;2023-02-10T04:26:31;102664.00;;;-1.65;92.20
3122;BME280;1571;52.524;14.104;2023-02-10T04:29:01;102674.69;;;-1.51;92.24
3122;BME280;1571;52.524;14.104;2023-02-10T04:31:29;102672.16;;;-1.47;92.60
3122;BME280;1571;52.524;14.104;2023-02-10T04:33:58;102673.16;;;-1.41;92.62
3122;BME280;1571;52.524;14.104;2023-02-10T04:36:26;102672.06;;;-1.53;92.54
3122;BME280;1571;52.524;14.104;2023-02-10T04:38:55;102676.81;;;-1.29;92.90
3122;BME280;1571;52.524;14.104;2023-02-10T04:41:26;102682.19;;;-1.21;93.06
3122;BME280;1571;52.524;14.104;2023-02-10T04:43:54;102670.06;;;-1.17;92.92
3122;BME280;1571;52.524;14.104;2023-02-10T04:46:24;102662.25;;;-1.19;93.20
3122;BME280;1571;52.524;14.104;2023-02-10T04:48:52;102658.13;;;-1.05;92.96
3122;BME280;1571;52.524;14.104;2023-02-10T04:51:20;102662.53;;;-1.00;92.98
3122;BME280;1571;52.524;14.104;2023-02-10T04:53:49;102661.66;;;-1.02;93.10
3122;BME280;1571;52.524;14.104;2023-02-10T04:56:17;102658.13;;;-1.05;93.33
3122;BME280;1571;52.524;14.104;2023-02-10T04:58:45;102661.81;;;-0.90;93.11
3122;BME280;1571;52.524;14.104;2023-02-10T05:01:14;102672.19;;;-0.95;93.24
3122;BME280;1571;52.524;14.104;2023-02-10T05:03:43;102676.59;;;-0.92;93.39
3122;BME280;1571;52.524;14.104;2023-02-10T05:06:13;102681.69;;;-0.98;93.47
3122;BME280;1571;52.524;14.104;2023-02-10T05:08:42;102681.75;;;-0.95;93.58
3122;BME280;1571;52.524;14.104;2023-02-10T05:11:12;102681.91;;;-0.85;93.67
3122;BME280;1571;52.524;14.104;2023-02-10T05:13:41;102671.47;;;-0.86;93.62
3122;BME280;1571;52.524;14.104;2023-02-10T05:16:11;102677.56;;;-0.86;93.59
3122;BME280;1571;52.524;14.104;2023-02-10T05:18:40;102671.53;;;-0.83;93.70
3122;BME280;1571;52.524;14.104;2023-02-10T05:21:11;102671.56;;;-0.80;93.77
3122;BME280;1571;52.524;14.104;2023-02-10T05:23:40;102674.06;;;-0.88;93.85
3122;BME280;1571;52.524;14.104;2023-02-10T05:26:08;102674.69;;;-1.02;94.01
3122;BME280;1571;52.524;14.104;2023-02-10T05:28:37;102675.66;;;-0.96;94.41
3122;BME280;1571;52.524;14.104;2023-02-10T05:31:05;102683.56;;;-0.91;94.48
3122;BME280;1571;52.524;14.104;2023-02-10T05:33:35;102687.06;;;-0.89;94.71
3122;BME280;1571;52.524;14.104;2023-02-10T05:36:04;102682.69;;;-0.92;94.71
3122;BME280;1571;52.524;14.104;2023-02-10T05:38:34;102688.75;;;-0.91;94.79
3122;BME280;1571;52.524;14.104;2023-02-10T05:41:02;102672.22;;;-0.93;95.21
3122;BME280;1571;52.524;14.104;2023-02-10T05:43:31;102679.16;;;-0.94;95.26
3122;BME280;1571;52.524;14.104;2023-02-10T05:45:59;102680.88;;;-0.96;95.54
3122;BME280;1571;52.524;14.104;2023-02-10T05:48:27;102688.84;;;-0.87;95.83
3122;BME280;1571;52.524;14.104;2023-02-10T05:50:55;102697.50;;;-0.89;96.07
3122;BME280;1571;52.524;14.104;2023-02-10T05:53:24;102688.91;;;-0.82;96.15
3122;BME280;1571;52.524;14.104;2023-02-10T05:55:53;102689.00;;;-0.76;96.41
3122;BME280;1571;52.524;14.104;2023-02-10T05:58:21;102686.34;;;-0.80;96.48
3122;BME280;1571;52.524;14.104;2023-02-10T06:00:50;102687.06;;;-0.89;96.58
3122;BME280;1571;52.524;14.104;2023-02-10T06:03:18;102693.97;;;-0.91;96.89
3122;BME280;1571;52.524;14.104;2023-02-10T06:05:47;102688.91;;;-0.82;96.98
3122;BME280;1571;52.524;14.104;2023-02-10T06:08:16;102698.44;;;-0.86;97.33
3122;BME280;1571;52.524;14.104;2023-02-10T06:10:44;102713.97;;;-0.90;97.63
3122;BME280;1571;52.524;14.104;2023-02-10T06:13:14;102703.72;;;-0.81;97.84
3122;BME280;1571;52.524;14.104;2023-02-10T06:15:42;102711.47;;;-0.84;97.92
3122;BME280;1571;52.524;14.104;2023-02-10T06:18:17;102705.44;;;-0.81;98.14
3122;BME280;1571;52.524;14.104;2023-02-10T06:20:46;102714.94;;;-0.85;98.41
3122;BME280;1571;52.524;14.104;2023-02-10T06:23:15;102720.16;;;-0.85;98.33
3122;BME280;1571;52.524;14.104;2023-02-10T06:25:43;102725.38;;;-0.85;98.56
3122;BME280;1571;52.524;14.104;2023-02-10T06:28:11;102737.50;;;-0.87;98.72
3122;BME280;1571;52.524;14.104;2023-02-10T06:30:42;102752.84;;;-1.04;99.02
3122;BME280;1571;52.524;14.104;2023-02-10T06:33:11;102746.16;;;-0.90;99.44
3122;BME280;1571;52.524;14.104;2023-02-10T06:35:39;102741.94;;;-0.83;99.61
3122;BME280;1571;52.524;14.104;2023-02-10T06:38:07;102741.91;;;-0.85;99.85
3122;BME280;1571;52.524;14.104;2023-02-10T06:40:36;102741.84;;;-0.88;100.00
3122;BME280;1571;52.524;14.104;2023-02-10T06:43:04;102748.66;;;-0.96;100.00
3122;BME280;1571;52.524;14.104;2023-02-10T06:45:33;102749.75;;;-0.83;100.00
3122;BME280;1571;52.524;14.104;2023-02-10T06:48:03;102754.88;;;-0.89;100.00
3122;BME280;1571;52.524;14.104;2023-02-10T06:50:32;102756.69;;;-0.85;100.00
3122;BME280;1571;52.524;14.104;2023-02-10T06:53:00;102755.81;;;-0.86;100.00
3122;BME280;1571;52.524;14.104;2023-02-10T06:55:28;102755.16;;;-0.71;100.00
3122;BME280;1571;52.524;14.104;2023-02-10T06:57:58;102768.16;;;-0.72;100.00
3122;BME280;1571;52.524;14.104;2023-02-10T07:00:26;102763.94;;;-0.66;100.00
3122;BME280;1571;52.524;14.104;2023-02-10T07:02:55;102762.31;;;-0.60;100.00
3122;BME280;1571;52.524;14.104;2023-02-10T07:05:24;102764.91;;;-0.59;100.00
3122;BME280;1571;52.524;14.104;2023-02-10T07:07:53;102764.16;;;-0.53;100.00
3122;BME280;1571;52.524;14.104;2023-02-10T07:10:21;102766.91;;;-0.44;100.00
3122;BME280;1571;52.524;14.104;2023-02-10T07:12:49;102766.81;;;-0.50;100.00
3122;BME280;1571;52.524;14.104;2023-02-10T07:15:18;102774.09;;;-0.29;100.00
3122;BME280;1571;52.524;14.104;2023-02-10T07:17:50;102767.22;;;-0.24;100.00
3122;BME280;1571;52.524;14.104;2023-02-10T07:20:19;102755.06;;;-0.21;100.00
3122;BME280;1571;52.524;14.104;2023-02-10T07:22:48;102761.22;;;-0.17;100.00
3122;BME280;1571;52.524;14.104;2023-02-10T07:25:17;102752.53;;;-0.14;100.00
3122;BME280;1571;52.524;14.104;2023-02-10T07:27:46;102752.44;;;-0.21;100.00
3122;BME280;1571;52.524;14.104;2023-02-10T07:30:14;102751.03;;;0.00;100.00
3122;BME280;1571;52.524;14.104;2023-02-10T07:32:42;102755.47;;;0.07;100.00
3122;BME280;1571;52.524;14.104;2023-02-10T07:35:11;102772.72;;;-0.03;100.00
3122;BME280;1571;52.524;14.104;2023-02-10T07:37:39;102775.38;;;-0.01;100.00
3122;BME280;1571;52.524;14.104;2023-02-10T07:40:10;102781.59;;;0.07;100.00
3122;BME280;1571;52.524;14.104;2023-02-10T07:42:38;102773.75;;;0.09;100.00
3122;BME280;1571;52.524;14.104;2023-02-10T07:45:26;102783.28;;;0.07;99.87
3122;BME280;1571;52.524;14.104;2023-02-10T07:47:58;102784.28;;;0.15;99.91
3122;BME280;1571;52.524;14.104;2023-02-10T07:50:26;102779.13;;;0.19;99.97
3122;BME280;1571;52.524;14.104;2023-02-10T07:52:58;102773.91;;;0.19;99.94
3122;BME280;1571;52.524;14.104;2023-02-10T07:55:29;102784.34;;;0.19;99.84
3122;BME280;1571;52.524;14.104;2023-02-10T07:57:57;102786.13;;;0.22;99.88
3122;BME280;1571;52.524;14.104;2023-02-10T08:00:26;102786.25;;;0.33;99.85
3122;BME280;1571;52.524;14.104;2023-02-10T08:02:55;102785.41;;;0.34;99.76
3122;BME280;1571;52.524;14.104;2023-02-10T08:05:23;102786.22;;;0.30;99.79
3122;BME280;1571;52.524;14.104;2023-02-10T08:07:51;102794.19;;;0.40;99.88
3122;BME280;1571;52.524;14.104;2023-02-10T08:10:19;102793.31;;;0.38;99.85
3122;BME280;1571;52.524;14.104;2023-02-10T08:12:49;102800.34;;;0.44;99.84
3122;BME280;1571;52.524;14.104;2023-02-10T08:15:17;102801.28;;;0.51;99.67
3122;BME280;1571;52.524;14.104;2023-02-10T08:17:47;102795.22;;;0.53;99.83
3122;BME280;1571;52.524;14.104;2023-02-10T08:20:16;102795.31;;;0.59;99.74
3122;BME280;1571;52.524;14.104;2023-02-10T08:22:44;102805.00;;;0.70;99.51
3122;BME280;1571;52.524;14.104;2023-02-10T08:25:12;102805.06;;;0.76;99.41
3122;BME280;1571;52.524;14.104;2023-02-10T08:27:41;102805.06;;;0.76;99.28
3122;BME280;1571;52.524;14.104;2023-02-10T08:30:11;102803.34;;;0.78;99.37
3122;BME280;1571;52.524;14.104;2023-02-10T08:32:39;102800.75;;;0.81;99.24
3122;BME280;1571;52.524;14.104;2023-02-10T08:35:08;102802.53;;;0.82;99.08
3122;BME280;1571;52.524;14.104;2023-02-10T08:37:36;102809.50;;;0.83;98.96
3122;BME280;1571;52.524;14.104;2023-02-10T08:40:05;102806.13;;;0.90;99.13
3122;BME280;1571;52.524;14.104;2023-02-10T08:42:34;102795.75;;;0.99;99.03
3122;BME280;1571;52.524;14.104;2023-02-10T08:45:03;102801.91;;;1.04;99.05
3122;BME280;1571;52.524;14.104;2023-02-10T08:47:34;102803.66;;;1.07;98.91
3122;BME280;1571;52.524;14.104;2023-02-10T08:50:03;102800.22;;;1.11;98.67
3122;BME280;1571;52.524;14.104;2023-02-10T08:52:31;102802.81;;;1.10;98.72
3122;BME280;1571;52.524;14.104;2023-02-10T08:55:00;102802.06;;;1.23;98.68
3122;BME280;1571;52.524;14.104;2023-02-10T08:57:29;102806.53;;;1.33;98.41
3122;BME280;1571;52.524;14.104;2023-02-10T08:59:57;102807.38;;;1.29;98.18
3122;BME280;1571;52.524;14.104;2023-02-10T09:02:25;102805.63;;;1.33;98.18
3122;BME280;1571;52.524;14.104;2023-02-10T09:04:55;102809.22;;;1.41;97.91
3122;BME280;1571;52.524;14.104;2023-02-10T09:07:36;102816.25;;;1.47;97.69
3122;BME280;1571;52.524;14.104;2023-02-10T09:10:05;102804.09;;;1.55;97.49
3122;BME280;1571;52.524;14.104;2023-02-10T09:12:33;102800.69;;;1.65;97.27
3122;BME280;1571;52.524;14.104;2023-02-10T09:15:02;102808.63;;;1.77;96.78
3122;BME280;1571;52.524;14.104;2023-02-10T09:17:30;102808.69;;;1.86;96.51
3122;BME280;1571;52.524;14.104;2023-02-10T09:20:00;102815.75;;;2.00;96.15
3122;BME280;1571;52.524;14.104;2023-02-10T09:22:30;102813.16;;;2.03;95.78
3122;BME280;1571;52.524;14.104;2023-02-10T09:24:58;102828.94;;;2.14;95.63
3122;BME280;1571;52.524;14.104;2023-02-10T09:27:26;102816.84;;;2.36;95.18
3122;BME280;1571;52.524;14.104;2023-02-10T09:29:55;102815.13;;;2.47;94.80
3122;BME280;1571;52.524;14.104;2023-02-10T09:32:23;102814.28;;;2.54;94.12
3122;BME280;1571;52.524;14.104;2023-02-10T09:34:51;102809.97;;;2.64;93.53
3122;BME280;1571;52.524;14.104;2023-02-10T09:37:22;102807.41;;;2.84;93.24
3122;BME280;1571;52.524;14.104;2023-02-10T09:39:51;102808.31;;;2.97;92.31
3122;BME280;1571;52.524;14.104;2023-02-10T09:42:26;102819.72;;;3.11;91.61
3122;BME280;1571;52.524;14.104;2023-02-10T09:45:03;102808.34;;;3.21;90.91
3122;BME280;1571;52.524;14.104;2023-02-10T09:47:40;102805.75;;;3.29;90.46
3122;BME280;1571;52.524;14.104;2023-02-10T09:50:32;102805.75;;;3.33;90.00
3122;BME280;1571;52.524;14.104;2023-02-10T09:53:11;102797.84;;;3.44;89.64
3122;BME280;1571;52.524;14.104;2023-02-10T09:55:44;102809.25;;;3.57;89.30
3122;BME280;1571;52.524;14.104;2023-02-10T09:58:19;102812.75;;;3.61;88.79
3122;BME280;1571;52.524;14.104;2023-02-10T10:00:53;102812.75;;;3.64;88.57
3122;BME280;1571;52.524;14.104;2023-02-10T10:03:26;102832.00;;;3.57;88.58
3122;BME280;1571;52.524;14.104;2023-02-10T10:06:02;102834.66;;;3.63;88.66
3122;BME280;1571;52.524;14.104;2023-02-10T10:08:42;102815.34;;;3.91;88.17
3122;BME280;1571;52.524;14.104;2023-02-10T10:11:22;102826.63;;;4.36;87.38
3122;BME280;1571;52.524;14.104;2023-02-10T10:13:51;102831.91;;;4.30;86.77
3122;BME280;1571;52.524;14.104;2023-02-10T10:16:29;102834.56;;;4.13;86.40
3122;BME280;1571;52.524;14.104;2023-02-10T10:19:11;102841.63;;;3.97;86.55
3122;BME280;1571;52.524;14.104;2023-02-10T10:21:51;102833.75;;;3.88;86.82
3122;BME280;1571;52.524;14.104;2023-02-10T10:24:37;102835.50;;;3.80;87.46
3122;BME280;1571;52.524;14.104;2023-02-10T10:27:19;102846.88;;;4.02;87.85
3122;BME280;1571;52.524;14.104;2023-02-10T10:29:53;102841.56;;;4.21;87.47
3122;BME280;1571;52.524;14.104;2023-02-10T10:32:31;102839.78;;;4.32;86.75
3122;BME280;1571;52.524;14.104;2023-02-10T10:35:01;102842.41;;;4.36;86.57
3122;BME280;1571;52.524;14.104;2023-02-10T10:37:29;102844.16;;;4.34;86.40
3122;BME280;1571;52.524;14.104;2023-02-10T10:40:02;102837.13;;;4.43;86.36
3122;BME280;1571;52.524;14.104;2023-02-10T10:42:39;102841.53;;;4.36;86.10
3122;BME280;1571;52.524;14.104;2023-02-10T10:45:13;102842.41;;;4.44;86.12
3122;BME280;1571;52.524;14.104;2023-02-10T10:47:45;102837.97;;;4.52;85.99
3122;BME280;1571;52.524;14.104;2023-02-10T10:50:16;102843.25;;;4.51;85.95
3122;BME280;1571;52.524;14.104;2023-02-10T10:52:46;102849.38;;;4.57;85.81
3122;BME280;1571;52.524;14.104;2023-02-10T10:55:22;102838.84;;;4.50;85.85
3122;BME280;1571;52.524;14.104;2023-02-10T10:57:53;102852.00;;;4.50;85.75
3122;BME280;1571;52.524;14.104;2023-02-10T11:00:24;102841.47;;;4.56;85.75
3122;BME280;1571;52.524;14.104;2023-02-10T11:02:54;102844.97;;;4.58;85.58
3122;BME280;1571;52.524;14.104;2023-02-10T11:05:27;102842.38;;;4.49;85.87
3122;BME280;1571;52.524;14.104;2023-02-10T11:07:57;102835.38;;;4.46;85.92
3122;BME280;1571;52.524;14.104;2023-02-10T11:10:32;102836.25;;;4.44;86.12
3122;BME280;1571;52.524;14.104;2023-02-10T11:13:03;102838.84;;;4.57;86.16
3122;BME280;1571;52.524;14.104;2023-02-10T11:15:37;102836.28;;;4.31;86.21
3122;BME280;1571;52.524;14.104;2023-02-10T11:18:14;102831.88;;;4.43;86.58
3122;BME280;1571;52.524;14.104;2023-02-10T11:20:53;102831.84;;;4.53;86.48
3122;BME280;1571;52.524;14.104;2023-02-10T11:23:21;102828.34;;;4.53;86.41
3122;BME280;1571;52.524;14.104;2023-02-10T11:25:58;102823.03;;;4.62;86.50
3122;BME280;1571;52.524;14.104;2023-02-10T11:28:29;102823.03;;;4.62;86.49
3122;BME280;1571;52.524;14.104;2023-02-10T11:31:00;102826.56;;;4.56;86.44
3122;BME280;1571;52.524;14.104;2023-02-10T11:33:31;102825.63;;;4.68;86.18
3122;BME280;1571;52.524;14.104;2023-02-10T11:36:04;102825.53;;;4.91;85.89
3122;BME280;1571;52.524;14.104;2023-02-10T11:38:34;102825.53;;;4.90;85.24
3122;BME280;1571;52.524;14.104;2023-02-10T11:41:06;102827.28;;;4.89;85.32
3122;BME280;1571;52.524;14.104;2023-02-10T11:43:40;102818.41;;;5.06;85.25
3122;BME280;1571;52.524;14.104;2023-02-10T11:46:18;102815.69;;;5.22;84.58
3122;BME280;1571;52.524;14.104;2023-02-10T11:48:52;102808.69;;;5.18;84.39
3122;BME280;1571;52.524;14.104;2023-02-10T11:51:21;102822.81;;;5.05;84.65
3122;BME280;1571;52.524;14.104;2023-02-10T11:53:49;102814.88;;;5.11;84.88
3122;BME280;1571;52.524;14.104;2023-02-10T11:56:22;102816.59;;;5.11;84.28
3122;BME280;1571;52.524;14.104;2023-02-10T11:59:19;102824.47;;;5.15;84.38
3122;BME280;1571;52.524;14.104;2023-02-10T12:01:53;102813.03;;;5.21;84.51
3122;BME280;1571;52.524;14.104;2023-02-10T12:07:39;102817.38;;;5.28;83.71
3122;BME280;1571;52.524;14.104;2023-02-10T12:10:16;102821.00;;;5.10;83.81
3122;BME280;1571;52.524;14.104;2023-02-10T12:12:53;102824.59;;;5.00;84.15
3122;BME280;1571;52.524;14.104;2023-02-10T12:15:33;102822.84;;;4.99;84.36
3122;BME280;1571;52.524;14.104;2023-02-10T12:18:14;102827.28;;;4.89;84.32
3122;BME280;1571;52.524;14.104;2023-02-10T12:20:53;102817.56;;;4.97;84.89
3122;BME280;1571;52.524;14.104;2023-02-10T12:23:39;102815.69;;;5.19;84.87
3122;BME280;1571;52.524;14.104;2023-02-10T12:26:18;102813.75;;;5.43;84.27
3122;BME280;1571;52.524;14.104;2023-02-10T12:28:59;102805.94;;;5.32;83.79
3122;BME280;1571;52.524;14.104;2023-02-10T12:31:37;102813.94;;;5.18;84.11
3122;BME280;1571;52.524;14.104;2023-02-10T12:34:26;102807.75;;;5.24;84.31
3122;BME280;1571;52.524;14.104;2023-02-10T12:37:09;102806.00;;;5.20;84.25
3122;BME280;1571;52.524;14.104;2023-02-10T12:39:44;102800.75;;;5.25;84.08
3122;BME280;1571;52.524;14.104;2023-02-10T12:42:34;102800.78;;;5.17;84.28
3122;BME280;1571;52.524;14.104;2023-02-10T12:45:17;102796.38;;;5.20;84.29
3122;BME280;1571;52.524;14.104;2023-02-10T12:47:58;102801.63;;;5.24;84.50
3122;BME280;1571;52.524;14.104;2023-02-10T12:50:41;102793.63;;;5.33;84.08
3122;BME280;1571;52.524;14.104;2023-02-10T12:53:18;102790.22;;;5.25;83.95
3122;BME280;1571;52.524;14.104;2023-02-10T12:55:51;102795.41;;;5.31;83.95
3122;BME280;1571;52.524;14.104;2023-02-10T12:58:25;102798.22;;;5.09;84.03
3122;BME280;1571;52.524;14.104;2023-02-10T13:01:05;102791.16;;;5.14;84.60
3122;BME280;1571;52.524;14.104;2023-02-10T13:03:37;102799.91;;;5.16;84.46
3122;BME280;1571;52.524;14.104;2023-02-10T13:06:20;102809.66;;;4.97;84.74
3122;BME280;1571;52.524;14.104;2023-02-10T13:08:54;102792.91;;;5.12;84.67
3122;BME280;1571;52.524;14.104;2023-02-10T13:11:33;102794.72;;;5.07;84.74
3122;BME280;1571;52.524;14.104;2023-02-10T13:14:08;102791.28;;;4.93;85.12
3122;BME280;1571;52.524;14.104;2023-02-10T13:16:39;102792.97;;;5.05;85.41
3122;BME280;1571;52.524;14.104;2023-02-10T13:19:16;102791.19;;;5.10;85.12
3122;BME280;1571;52.524;14.104;2023-02-10T13:21:53;102791.13;;;5.20;84.95
3122;BME280;1571;52.524;14.104;2023-02-10T13:24:27;102789.38;;;5.18;84.75
3122;BME280;1571;52.524;14.104;2023-02-10T13:27:03;102788.44;;;5.22;84.72
3122;BME280;1571;52.524;14.104;2023-02-10T13:29:44;102785.81;;;5.24;84.63
3122;BME280;1571;52.524;14.104;2023-02-10T13:32:33;102792.00;;;5.18;84.42